sensor_id;sensor_type;location;lat;lon;timestamp;temperature;humidity
12853;DHT22;6495;51.808;7.478;2022-11-20T00:00:57;-0.40;99.90
12853;DHT22;6495;51.808;7.478;2022-11-20T00:03:51;-0.40;99.90
12853;DHT22;6495;51.808;7.478;2022-11-20T00:06:38;-0.40;99.90
12853;DHT22;6495;51.808;7.478;2022-11-20T00:09:25;-0.40;99.90
12853;DHT22;6495;51.808;7.478;2022-11-20T00:12:12;-0.40;99.90
12853;DHT22;6495;51.808;7.478;2022-11-20T00:14:59;-0.40;99.90
12853;DHT22;6495;51.808;7.478;2022-11-20T00:17:47;-0.40;99.90
12853;DHT22;6495;51.808;7.478;2022-11-20T00:20:34;-0.50;99.90
12853;DHT22;6495;51.808;7.478;2022-11-20T00:23:20;-0.50;99.90
12853;DHT22;6495;51.808;7.478;2022-11-20T00:26:09;-0.50;99.90
12853;DHT22;6495;51.808;7.478;2022-11-20T00:28:59;-0.50;99.90
12853;DHT22;6495;51.808;7.478;2022-11-20T00:31:47;-0.50;99.90
12853;DHT22;6495;51.808;7.478;2022-11-20T00:34:35;-0.50;99.90
12853;DHT22;6495;51.808;7.478;2022-11-20T00:37:22;-0.50;99.90
12853;DHT22;6495;51.808;7.478;2022-11-20T00:40:09;-0.50;99.90
12853;DHT22;6495;51.808;7.478;2022-11-20T00:42:57;-0.60;99.90
12853;DHT22;6495;51.808;7.478;2022-11-20T00:45:43;-0.60;99.90
12853;DHT22;6495;51.808;7.478;2022-11-20T00:48:30;-0.60;99.90
12853;DHT22;6495;51.808;7.478;2022-11-20T00:51:20;-0.60;99.90
12853;DHT22;6495;51.808;7.478;2022-11-20T00:54:09;-0.60;99.90
12853;DHT22;6495;51.808;7.478;2022-11-20T00:56:56;-0.60;99.90
12853;DHT22;6495;51.808;7.478;2022-11-20T00:59:42;-0.60;99.90
12853;DHT22;6495;51.808;7.478;2022-11-20T01:02:29;-0.60;99.90
12853;DHT22;6495;51.808;7.478;2022-11-20T01:05:15;-0.60;99.90
12853;DHT22;6495;51.808;7.478;2022-11-20T01:08:04;-0.60;99.90
12853;DHT22;6495;51.808;7.478;2022-11-20T01:10:51;-0.70;99.90
12853;DHT22;6495;51.808;7.478;2022-11-20T01:13:38;-0.70;99.90
12853;DHT22;6495;51.808;7.478;2022-11-20T01:16:27;-0.70;99.90
12853;DHT22;6495;51.808;7.478;2022-11-20T01:19:18;-0.70;99.90
12853;DHT22;6495;51.808;7.478;2022-11-20T01:22:06;-0.70;99.90
12853;DHT22;6495;51.808;7.478;2022-11-20T01:24:54;-0.70;99.90
12853;DHT22;6495;51.808;7.478;2022-11-20T01:27:41;-0.70;99.90
12853;DHT22;6495;51.808;7.478;2022-11-20T01:30:28;-0.70;99.90
12853;DHT22;6495;51.808;7.478;2022-11-20T01:33:15;-0.70;99.90
12853;DHT22;6495;51.808;7.478;2022-11-20T01:36:06;-0.80;99.90
12853;DHT22;6495;51.808;7.478;2022-11-20T01:38:56;-0.80;99.90
12853;DHT22;6495;51.808;7.478;2022-11-20T01:41:47;-0.80;99.90
12853;DHT22;6495;51.808;7.478;2022-11-20T01:44:57;-0.80;99.90
12853;DHT22;6495;51.808;7.478;2022-11-20T01:47:46;-0.80;99.90
12853;DHT22;6495;51.808;7.478;2022-11-20T01:50:35;-0.90;99.90
12853;DHT22;6495;51.808;7.478;2022-11-20T01:53:25;-0.90;99.90
12853;DHT22;6495;51.808;7.478;2022-11-20T01:56:17;-0.90;99.90
12853;DHT22;6495;51.808;7.478;2022-11-20T01:59:07;-1.00;99.90
12853;DHT22;6495;51.808;7.478;2022-11-20T02:01:57;-1.00;99.90
12853;DHT22;6495;51.808;7.478;2022-11-20T02:04:44;-1.00;99.90
12853;DHT22;6495;51.808;7.478;2022-11-20T02:07:32;-1.10;99.90
12853;DHT22;6495;51.808;7.478;2022-11-20T02:10:19;-1.10;99.90
12853;DHT22;6495;51.808;7.478;2022-11-20T02:13:06;-1.10;99.90
12853;DHT22;6495;51.808;7.478;2022-11-20T02:16:15;-1.10;99.90
12853;DHT22;6495;51.808;7.478;2022-11-20T02:19:16;-1.10;99.90
12853;DHT22;6495;51.808;7.478;2022-11-20T02:22:13;-1.20;99.90
12853;DHT22;6495;51.808;7.478;2022-11-20T02:25:07;-1.20;99.90
12853;DHT22;6495;51.808;7.478;2022-11-20T02:27:56;-1.20;99.90
12853;DHT22;6495;51.808;7.478;2022-11-20T02:30:43;-1.20;99.90
12853;DHT22;6495;51.808;7.478;2022-11-20T02:33:30;-1.20;99.90
12853;DHT22;6495;51.808;7.478;2022-11-20T02:36:17;-1.20;99.90
12853;DHT22;6495;51.808;7.478;2022-11-20T02:39:04;-1.20;99.90
12853;DHT22;6495;51.808;7.478;2022-11-20T02:41:54;-1.30;99.90
12853;DHT22;6495;51.808;7.478;2022-11-20T02:44:42;-1.30;99.90
12853;DHT22;6495;51.808;7.478;2022-11-20T02:47:29;-1.30;99.90
12853;DHT22;6495;51.808;7.478;2022-11-20T02:50:16;-1.30;99.90
12853;DHT22;6495;51.808;7.478;2022-11-20T02:53:04;-1.30;99.90
12853;DHT22;6495;51.808;7.478;2022-11-20T02:55:50;-1.30;99.90
12853;DHT22;6495;51.808;7.478;2022-11-20T02:58:39;-1.30;99.90
12853;DHT22;6495;51.808;7.478;2022-11-20T03:01:26;-1.30;99.90
12853;DHT22;6495;51.808;7.478;2022-11-20T03:04:13;-1.30;99.90
12853;DHT22;6495;51.808;7.478;2022-11-20T03:07:00;-1.30;99.90
12853;DHT22;6495;51.808;7.478;2022-11-20T03:09:47;-1.30;99.90
12853;DHT22;6495;51.808;7.478;2022-11-20T03:12:33;-1.30;99.90
12853;DHT22;6495;51.808;7.478;2022-11-20T03:15:22;-1.30;99.90
12853;DHT22;6495;51.808;7.478;2022-11-20T03:18:09;-1.30;99.90
12853;DHT22;6495;51.808;7.478;2022-11-20T03:20:59;-1.30;99.90
12853;DHT22;6495;51.808;7.478;2022-11-20T03:23:45;-1.30;99.90
12853;DHT22;6495;51.808;7.478;2022-11-20T03:26:32;-1.30;99.90
12853;DHT22;6495;51.808;7.478;2022-11-20T03:29:19;-1.30;99.90
12853;DHT22;6495;51.808;7.478;2022-11-20T03:32:08;-1.30;99.90
12853;DHT22;6495;51.808;7.478;2022-11-20T03:34:54;-1.30;99.90
12853;DHT22;6495;51.808;7.478;2022-11-20T03:37:41;-1.40;99.90
12853;DHT22;6495;51.808;7.478;2022-11-20T03:40:28;-1.40;99.90
12853;DHT22;6495;51.808;7.478;2022-11-20T03:43:14;-1.40;99.90
12853;DHT22;6495;51.808;7.478;2022-11-20T03:46:01;-1.40;99.90
12853;DHT22;6495;51.808;7.478;2022-11-20T03:48:50;-1.40;99.90
12853;DHT22;6495;51.808;7.478;2022-11-20T03:51:38;-1.40;99.90
12853;DHT22;6495;51.808;7.478;2022-11-20T03:54:25;-1.40;99.90
12853;DHT22;6495;51.808;7.478;2022-11-20T03:57:11;-1.40;99.90
12853;DHT22;6495;51.808;7.478;2022-11-20T03:59:59;-1.40;99.90
12853;DHT22;6495;51.808;7.478;2022-11-20T04:02:46;-1.40;99.90
12853;DHT22;6495;51.808;7.478;2022-11-20T04:05:34;-1.40;99.90
12853;DHT22;6495;51.808;7.478;2022-11-20T04:08:21;-1.40;99.90
12853;DHT22;6495;51.808;7.478;2022-11-20T04:11:09;-1.40;99.90
12853;DHT22;6495;51.808;7.478;2022-11-20T04:13:59;-1.30;99.90
12853;DHT22;6495;51.808;7.478;2022-11-20T04:16:47;-1.30;99.90
12853;DHT22;6495;51.808;7.478;2022-11-20T04:19:34;-1.30;99.90
12853;DHT22;6495;51.808;7.478;2022-11-20T04:22:22;-1.30;99.90
12853;DHT22;6495;51.808;7.478;2022-11-20T04:25:09;-1.20;99.90
12853;DHT22;6495;51.808;7.478;2022-11-20T04:27:55;-1.20;99.90
12853;DHT22;6495;51.808;7.478;2022-11-20T04:30:43;-1.20;99.90
12853;DHT22;6495;51.808;7.478;2022-11-20T04:33:30;-1.20;99.90
12853;DHT22;6495;51.808;7.478;2022-11-20T04:36:20;-1.10;99.90
12853;DHT22;6495;51.808;7.478;2022-11-20T04:39:14;-1.10;99.90
12853;DHT22;6495;51.808;7.478;2022-11-20T04:42:02;-1.10;99.90
12853;DHT22;6495;51.808;7.478;2022-11-20T04:45:07;-1.10;99.90
12853;DHT22;6495;51.808;7.478;2022-11-20T04:47:55;-1.10;99.90
12853;DHT22;6495;51.808;7.478;2022-11-20T04:50:41;-1.00;99.90
12853;DHT22;6495;51.808;7.478;2022-11-20T04:53:28;-1.00;99.90
12853;DHT22;6495;51.808;7.478;2022-11-20T04:56:18;-1.00;99.90
12853;DHT22;6495;51.808;7.478;2022-11-20T04:59:04;-1.00;99.90
12853;DHT22;6495;51.808;7.478;2022-11-20T05:01:51;-1.00;99.90
12853;DHT22;6495;51.808;7.478;2022-11-20T05:04:39;-0.90;99.90
12853;DHT22;6495;51.808;7.478;2022-11-20T05:07:26;-0.90;99.90
12853;DHT22;6495;51.808;7.478;2022-11-20T05:10:13;-0.90;99.90
12853;DHT22;6495;51.808;7.478;2022-11-20T05:13:01;-0.90;99.90
12853;DHT22;6495;51.808;7.478;2022-11-20T05:15:48;-0.90;99.90
12853;DHT22;6495;51.808;7.478;2022-11-20T05:18:35;-0.90;99.90
12853;DHT22;6495;51.808;7.478;2022-11-20T05:21:22;-0.90;99.90
12853;DHT22;6495;51.808;7.478;2022-11-20T05:24:09;-0.90;99.90
12853;DHT22;6495;51.808;7.478;2022-11-20T05:26:55;-0.90;99.90
12853;DHT22;6495;51.808;7.478;2022-11-20T05:29:43;-0.90;99.90
12853;DHT22;6495;51.808;7.478;2022-11-20T05:32:30;-0.90;99.90
12853;DHT22;6495;51.808;7.478;2022-11-20T05:35:17;-0.90;99.90
12853;DHT22;6495;51.808;7.478;2022-11-20T05:38:04;-0.90;99.90
12853;DHT22;6495;51.808;7.478;2022-11-20T05:40:51;-0.90;99.90
12853;DHT22;6495;51.808;7.478;2022-11-20T05:43:39;-0.90;99.90
12853;DHT22;6495;51.808;7.478;2022-11-20T05:46:28;-0.90;99.90
12853;DHT22;6495;51.808;7.478;2022-11-20T05:49:14;-0.90;99.90
12853;DHT22;6495;51.808;7.478;2022-11-20T05:52:01;-1.00;99.90
12853;DHT22;6495;51.808;7.478;2022-11-20T05:54:48;-1.00;99.90
12853;DHT22;6495;51.808;7.478;2022-11-20T05:57:35;-1.00;99.90
12853;DHT22;6495;51.808;7.478;2022-11-20T06:00:22;-1.00;99.90
12853;DHT22;6495;51.808;7.478;2022-11-20T06:03:10;-1.00;99.90
12853;DHT22;6495;51.808;7.478;2022-11-20T06:05:58;-1.00;99.90
12853;DHT22;6495;51.808;7.478;2022-11-20T06:08:45;-1.00;99.90
12853;DHT22;6495;51.808;7.478;2022-11-20T06:11:33;-1.10;99.90
12853;DHT22;6495;51.808;7.478;2022-11-20T06:14:20;-1.10;99.90
12853;DHT22;6495;51.808;7.478;2022-11-20T06:17:07;-1.10;99.90
12853;DHT22;6495;51.808;7.478;2022-11-20T06:19:55;-1.10;99.90
12853;DHT22;6495;51.808;7.478;2022-11-20T06:22:41;-1.10;99.90
12853;DHT22;6495;51.808;7.478;2022-11-20T06:25:28;-1.10;99.90
12853;DHT22;6495;51.808;7.478;2022-11-20T06:28:15;-1.10;99.90
12853;DHT22;6495;51.808;7.478;2022-11-20T06:31:01;-1.10;99.90
12853;DHT22;6495;51.808;7.478;2022-11-20T06:33:49;-1.10;99.90
12853;DHT22;6495;51.808;7.478;2022-11-20T06:36:39;-1.10;99.90
12853;DHT22;6495;51.808;7.478;2022-11-20T06:39:25;-1.20;99.90
12853;DHT22;6495;51.808;7.478;2022-11-20T06:42:12;-1.20;99.90
12853;DHT22;6495;51.808;7.478;2022-11-20T06:44:59;-1.20;99.90
12853;DHT22;6495;51.808;7.478;2022-11-20T06:47:45;-1.20;99.90
12853;DHT22;6495;51.808;7.478;2022-11-20T06:50:32;-1.20;99.90
12853;DHT22;6495;51.808;7.478;2022-11-20T06:53:21;-1.30;99.90
12853;DHT22;6495;51.808;7.478;2022-11-20T06:56:08;-1.30;99.90
12853;DHT22;6495;51.808;7.478;2022-11-20T06:58:55;-1.30;99.90
12853;DHT22;6495;51.808;7.478;2022-11-20T07:01:41;-1.30;99.90
12853;DHT22;6495;51.808;7.478;2022-11-20T07:04:29;-1.30;99.90
12853;DHT22;6495;51.808;7.478;2022-11-20T07:07:17;-1.30;99.90
12853;DHT22;6495;51.808;7.478;2022-11-20T07:10:06;-1.20;99.90
12853;DHT22;6495;51.808;7.478;2022-11-20T07:12:54;-1.20;99.90
12853;DHT22;6495;51.808;7.478;2022-11-20T07:15:41;-1.30;99.90
12853;DHT22;6495;51.808;7.478;2022-11-20T07:18:28;-1.20;99.90
12853;DHT22;6495;51.808;7.478;2022-11-20T07:21:15;-1.30;99.90
12853;DHT22;6495;51.808;7.478;2022-11-20T07:24:01;-1.20;99.90
12853;DHT22;6495;51.808;7.478;2022-11-20T07:26:50;-1.20;99.90
12853;DHT22;6495;51.808;7.478;2022-11-20T07:29:37;-1.20;99.90
12853;DHT22;6495;51.808;7.478;2022-11-20T07:32:23;-1.20;99.90
12853;DHT22;6495;51.808;7.478;2022-11-20T07:35:10;-1.20;99.90
12853;DHT22;6495;51.808;7.478;2022-11-20T07:37:57;-1.20;99.90
12853;DHT22;6495;51.808;7.478;2022-11-20T07:40:43;-1.10;99.90
12853;DHT22;6495;51.808;7.478;2022-11-20T07:43:32;-1.20;99.90
12853;DHT22;6495;51.808;7.478;2022-11-20T07:46:25;-1.10;99.90
12853;DHT22;6495;51.808;7.478;2022-11-20T07:49:12;-1.10;99.90
12853;DHT22;6495;51.808;7.478;2022-11-20T07:51:58;-1.10;99.90
12853;DHT22;6495;51.808;7.478;2022-11-20T07:54:49;-1.00;99.90
12853;DHT22;6495;51.808;7.478;2022-11-20T07:57:36;-1.00;99.90
12853;DHT22;6495;51.808;7.478;2022-11-20T08:00:24;-1.00;99.90
12853;DHT22;6495;51.808;7.478;2022-11-20T08:03:12;-1.00;99.90
12853;DHT22;6495;51.808;7.478;2022-11-20T08:06:05;-0.90;99.90
12853;DHT22;6495;51.808;7.478;2022-11-20T08:08:52;-0.90;99.90
12853;DHT22;6495;51.808;7.478;2022-11-20T08:11:39;-0.80;99.90
12853;DHT22;6495;51.808;7.478;2022-11-20T08:14:43;-0.80;99.90
12853;DHT22;6495;51.808;7.478;2022-11-20T08:17:32;-0.70;99.90
12853;DHT22;6495;51.808;7.478;2022-11-20T08:20:19;-0.70;99.90
12853;DHT22;6495;51.808;7.478;2022-11-20T08:23:07;-0.60;99.90
12853;DHT22;6495;51.808;7.478;2022-11-20T08:25:54;-0.60;99.90
12853;DHT22;6495;51.808;7.478;2022-11-20T08:28:49;-0.50;99.90
12853;DHT22;6495;51.808;7.478;2022-11-20T08:31:43;-0.40;99.90
12853;DHT22;6495;51.808;7.478;2022-11-20T08:34:31;-0.30;99.90
12853;DHT22;6495;51.808;7.478;2022-11-20T08:37:18;-0.30;99.90
12853;DHT22;6495;51.808;7.478;2022-11-20T08:40:06;-0.10;99.90
12853;DHT22;6495;51.808;7.478;2022-11-20T08:42:54;0.00;99.90
12853;DHT22;6495;51.808;7.478;2022-11-20T08:45:40;0.10;99.90
12853;DHT22;6495;51.808;7.478;2022-11-20T08:48:27;0.20;99.90
12853;DHT22;6495;51.808;7.478;2022-11-20T08:51:15;0.40;99.90
12853;DHT22;6495;51.808;7.478;2022-11-20T08:54:03;0.50;99.90
12853;DHT22;6495;51.808;7.478;2022-11-20T08:56:50;0.60;99.90
12853;DHT22;6495;51.808;7.478;2022-11-20T08:59:37;0.70;99.90
12853;DHT22;6495;51.808;7.478;2022-11-20T09:02:44;0.80;99.90
12853;DHT22;6495;51.808;7.478;2022-11-20T09:05:30;0.90;99.90
12853;DHT22;6495;51.808;7.478;2022-11-20T09:08:18;1.10;99.90
12853;DHT22;6495;51.808;7.478;2022-11-20T09:11:06;1.20;99.90
12853;DHT22;6495;51.808;7.478;2022-11-20T09:13:53;1.40;99.90
12853;DHT22;6495;51.808;7.478;2022-11-20T09:16:44;1.50;99.90
12853;DHT22;6495;51.808;7.478;2022-11-20T09:19:31;1.60;99.90
12853;DHT22;6495;51.808;7.478;2022-11-20T09:22:24;1.70;99.90
12853;DHT22;6495;51.808;7.478;2022-11-20T09:25:14;1.80;99.90
12853;DHT22;6495;51.808;7.478;2022-11-20T09:28:01;2.00;99.90
12853;DHT22;6495;51.808;7.478;2022-11-20T09:30:48;2.10;99.90
12853;DHT22;6495;51.808;7.478;2022-11-20T09:33:35;2.30;99.90
12853;DHT22;6495;51.808;7.478;2022-11-20T09:36:24;2.40;99.90
12853;DHT22;6495;51.808;7.478;2022-11-20T09:39:11;2.50;99.90
12853;DHT22;6495;51.808;7.478;2022-11-20T09:42:08;2.60;99.90
12853;DHT22;6495;51.808;7.478;2022-11-20T09:45:21;2.70;99.90
12853;DHT22;6495;51.808;7.478;2022-11-20T09:48:35;2.90;99.90
12853;DHT22;6495;51.808;7.478;2022-11-20T09:51:37;3.00;99.90
12853;DHT22;6495;51.808;7.478;2022-11-20T09:54:35;3.10;99.90
12853;DHT22;6495;51.808;7.478;2022-11-20T09:57:36;3.20;99.90
12853;DHT22;6495;51.808;7.478;2022-11-20T10:00:27;3.30;99.90
12853;DHT22;6495;51.808;7.478;2022-11-20T10:03:19;3.40;99.90
12853;DHT22;6495;51.808;7.478;2022-11-20T10:06:18;3.50;99.90
12853;DHT22;6495;51.808;7.478;2022-11-20T10:09:21;3.60;99.90
12853;DHT22;6495;51.808;7.478;2022-11-20T10:12:20;3.60;99.90
12853;DHT22;6495;51.808;7.478;2022-11-20T10:15:27;3.70;99.90
12853;DHT22;6495;51.808;7.478;2022-11-20T10:18:31;3.80;99.90
12853;DHT22;6495;51.808;7.478;2022-11-20T10:21:35;3.90;99.90
12853;DHT22;6495;51.808;7.478;2022-11-20T10:24:42;4.00;99.90
12853;DHT22;6495;51.808;7.478;2022-11-20T10:31:08;4.20;99.90
12853;DHT22;6495;51.808;7.478;2022-11-20T10:34:00;4.20;99.90
12853;DHT22;6495;51.808;7.478;2022-11-20T10:37:13;4.30;99.90
12853;DHT22;6495;51.808;7.478;2022-11-20T10:40:14;4.40;99.90
12853;DHT22;6495;51.808;7.478;2022-11-20T10:43:13;4.50;99.90
12853;DHT22;6495;51.808;7.478;2022-11-20T10:46:13;4.60;99.90
12853;DHT22;6495;51.808;7.478;2022-11-20T10:49:05;4.70;99.90
12853;DHT22;6495;51.808;7.478;2022-11-20T10:52:05;4.80;99.90
12853;DHT22;6495;51.808;7.478;2022-11-20T10:55:05;4.90;99.90
12853;DHT22;6495;51.808;7.478;2022-11-20T10:58:04;5.00;99.90
12853;DHT22;6495;51.808;7.478;2022-11-20T11:01:04;5.10;99.90
12853;DHT22;6495;51.808;7.478;2022-11-20T11:03:54;5.20;99.90
12853;DHT22;6495;51.808;7.478;2022-11-20T11:06:45;5.30;99.90
12853;DHT22;6495;51.808;7.478;2022-11-20T11:09:38;5.30;99.90
12853;DHT22;6495;51.808;7.478;2022-11-20T11:12:28;5.30;99.90
12853;DHT22;6495;51.808;7.478;2022-11-20T11:15:25;5.40;99.90
12853;DHT22;6495;51.808;7.478;2022-11-20T11:18:25;5.40;99.90
12853;DHT22;6495;51.808;7.478;2022-11-20T11:21:12;5.50;99.90
12853;DHT22;6495;51.808;7.478;2022-11-20T11:24:01;5.50;99.90
12853;DHT22;6495;51.808;7.478;2022-11-20T11:27:12;5.50;99.90
12853;DHT22;6495;51.808;7.478;2022-11-20T11:30:12;5.50;99.90
12853;DHT22;6495;51.808;7.478;2022-11-20T11:33:06;5.60;99.90
12853;DHT22;6495;51.808;7.478;2022-11-20T11:35:59;5.50;99.90
12853;DHT22;6495;51.808;7.478;2022-11-20T11:38:51;5.50;99.90
12853;DHT22;6495;51.808;7.478;2022-11-20T11:41:40;5.50;99.90
12853;DHT22;6495;51.808;7.478;2022-11-20T11:44:29;5.40;99.90
12853;DHT22;6495;51.808;7.478;2022-11-20T11:47:37;5.40;99.90
12853;DHT22;6495;51.808;7.478;2022-11-20T11:50:31;5.40;99.90
12853;DHT22;6495;51.808;7.478;2022-11-20T11:53:22;5.30;99.90
12853;DHT22;6495;51.808;7.478;2022-11-20T11:56:14;5.30;99.90
12853;DHT22;6495;51.808;7.478;2022-11-20T11:59:05;5.30;99.90
12853;DHT22;6495;51.808;7.478;2022-11-20T12:02:02;5.20;99.90
12853;DHT22;6495;51.808;7.478;2022-11-20T12:05:01;5.10;99.90
12853;DHT22;6495;51.808;7.478;2022-11-20T12:07:56;5.10;99.90
12853;DHT22;6495;51.808;7.478;2022-11-20T12:11:03;5.00;99.90
12853;DHT22;6495;51.808;7.478;2022-11-20T12:13:55;5.00;99.90
12853;DHT22;6495;51.808;7.478;2022-11-20T12:16:50;4.90;99.90
12853;DHT22;6495;51.808;7.478;2022-11-20T12:19:38;4.90;99.90
12853;DHT22;6495;51.808;7.478;2022-11-20T12:22:32;4.80;99.90
12853;DHT22;6495;51.808;7.478;2022-11-20T12:25:27;4.80;99.90
12853;DHT22;6495;51.808;7.478;2022-11-20T12:28:38;4.80;99.90
12853;DHT22;6495;51.808;7.478;2022-11-20T12:31:47;4.70;99.90
12853;DHT22;6495;51.808;7.478;2022-11-20T12:34:52;4.60;99.90
12853;DHT22;6495;51.808;7.478;2022-11-20T12:38:06;4.60;99.90
12853;DHT22;6495;51.808;7.478;2022-11-20T12:41:18;4.60;99.90
12853;DHT22;6495;51.808;7.478;2022-11-20T12:44:48;4.60;99.90
12853;DHT22;6495;51.808;7.478;2022-11-20T12:48:08;4.60;99.90
12853;DHT22;6495;51.808;7.478;2022-11-20T12:51:21;4.60;99.90
12853;DHT22;6495;51.808;7.478;2022-11-20T12:58:20;4.50;99.90
12853;DHT22;6495;51.808;7.478;2022-11-20T13:01:22;4.50;99.90
12853;DHT22;6495;51.808;7.478;2022-11-20T13:04:48;4.60;99.90
12853;DHT22;6495;51.808;7.478;2022-11-20T13:07:50;4.60;99.90
12853;DHT22;6495;51.808;7.478;2022-11-20T13:10:45;4.60;99.90
12853;DHT22;6495;51.808;7.478;2022-11-20T13:13:46;4.60;99.90
12853;DHT22;6495;51.808;7.478;2022-11-20T13:16:55;4.60;99.90
12853;DHT22;6495;51.808;7.478;2022-11-20T13:19:53;4.60;99.90
12853;DHT22;6495;51.808;7.478;2022-11-20T13:22:45;4.60;99.90
12853;DHT22;6495;51.808;7.478;2022-11-20T13:25:35;4.60;99.90
12853;DHT22;6495;51.808;7.478;2022-11-20T13:28:28;4.60;99.90
12853;DHT22;6495;51.808;7.478;2022-11-20T13:31:30;4.60;99.90
12853;DHT22;6495;51.808;7.478;2022-11-20T13:34:25;4.50;99.90
12853;DHT22;6495;51.808;7.478;2022-11-20T13:37:25;4.50;99.90
12853;DHT22;6495;51.808;7.478;2022-11-20T13:40:21;4.50;99.90
12853;DHT22;6495;51.808;7.478;2022-11-20T13:43:19;4.50;99.90
12853;DHT22;6495;51.808;7.478;2022-11-20T13:46:09;4.50;99.90
12853;DHT22;6495;51.808;7.478;2022-11-20T13:49:05;4.40;99.90
12853;DHT22;6495;51.808;7.478;2022-11-20T13:52:07;4.40;99.90
12853;DHT22;6495;51.808;7.478;2022-11-20T13:55:19;4.40;99.90
12853;DHT22;6495;51.808;7.478;2022-11-20T13:58:23;4.40;99.90
12853;DHT22;6495;51.808;7.478;2022-11-20T14:01:21;4.40;99.90
12853;DHT22;6495;51.808;7.478;2022-11-20T14:04:15;4.40;99.90
12853;DHT22;6495;51.808;7.478;2022-11-20T14:07:09;4.30;99.90
12853;DHT22;6495;51.808;7.478;2022-11-20T14:09:57;4.30;99.90
12853;DHT22;6495;51.808;7.478;2022-11-20T14:12:44;4.30;99.90
12853;DHT22;6495;51.808;7.478;2022-11-20T14:15:32;4.30;99.90
12853;DHT22;6495;51.808;7.478;2022-11-20T14:18:27;4.30;99.90
12853;DHT22;6495;51.808;7.478;2022-11-20T14:21:21;4.30;99.90
12853;DHT22;6495;51.808;7.478;2022-11-20T14:24:12;4.30;99.90
12853;DHT22;6495;51.808;7.478;2022-11-20T14:27:00;4.20;99.90
12853;DHT22;6495;51.808;7.478;2022-11-20T14:29:49;4.20;99.90
12853;DHT22;6495;51.808;7.478;2022-11-20T14:32:37;4.20;99.90
12853;DHT22;6495;51.808;7.478;2022-11-20T14:35:26;4.20;99.90
12853;DHT22;6495;51.808;7.478;2022-11-20T14:38:15;4.20;99.90
12853;DHT22;6495;51.808;7.478;2022-11-20T14:41:14;4.10;99.90
12853;DHT22;6495;51.808;7.478;2022-11-20T14:44:04;4.10;99.90
12853;DHT22;6495;51.808;7.478;2022-11-20T14:46:54;4.10;99.90
12853;DHT22;6495;51.808;7.478;2022-11-20T14:49:42;4.10;99.90
12853;DHT22;6495;51.808;7.478;2022-11-20T14:52:29;4.10;99.90
12853;DHT22;6495;51.808;7.478;2022-11-20T14:55:27;4.10;99.90
12853;DHT22;6495;51.808;7.478;2022-11-20T14:58:23;4.10;99.90
12853;DHT22;6495;51.808;7.478;2022-11-20T15:01:12;4.10;99.90
12853;DHT22;6495;51.808;7.478;2022-11-20T15:04:01;4.00;99.90
12853;DHT22;6495;51.808;7.478;2022-11-20T15:06:53;4.00;99.90
12853;DHT22;6495;51.808;7.478;2022-11-20T15:09:41;4.00;99.90
12853;DHT22;6495;51.808;7.478;2022-11-20T15:12:28;4.00;99.90
12853;DHT22;6495;51.808;7.478;2022-11-20T15:15:21;4.00;99.90
12853;DHT22;6495;51.808;7.478;2022-11-20T15:18:13;4.00;99.90
12853;DHT22;6495;51.808;7.478;2022-11-20T15:21:06;4.00;99.90
12853;DHT22;6495;51.808;7.478;2022-11-20T15:23:57;4.00;99.90
12853;DHT22;6495;51.808;7.478;2022-11-20T15:26:45;3.90;99.90
12853;DHT22;6495;51.808;7.478;2022-11-20T15:29:35;4.00;99.90
12853;DHT22;6495;51.808;7.478;2022-11-20T15:32:23;3.90;99.90
12853;DHT22;6495;51.808;7.478;2022-11-20T15:35:10;3.90;99.90
12853;DHT22;6495;51.808;7.478;2022-11-20T15:37:58;3.90;99.90
12853;DHT22;6495;51.808;7.478;2022-11-20T15:40:45;3.90;99.90
12853;DHT22;6495;51.808;7.478;2022-11-20T15:43:32;3.90;99.90
12853;DHT22;6495;51.808;7.478;2022-11-20T15:46:23;3.90;99.90
12853;DHT22;6495;51.808;7.478;2022-11-20T15:49:15;3.90;99.90
12853;DHT22;6495;51.808;7.478;2022-11-20T15:52:04;3.90;99.90
12853;DHT22;6495;51.808;7.478;2022-11-20T15:54:51;3.80;99.90
12853;DHT22;6495;51.808;7.478;2022-11-20T15:57:38;3.80;99.90
12853;DHT22;6495;51.808;7.478;2022-11-20T16:00:25;3.80;99.90
12853;DHT22;6495;51.808;7.478;2022-11-20T16:03:13;3.80;99.90
12853;DHT22;6495;51.808;7.478;2022-11-20T16:06:02;3.80;99.90
12853;DHT22;6495;51.808;7.478;2022-11-20T16:08:50;3.80;99.90
12853;DHT22;6495;51.808;7.478;2022-11-20T16:11:37;3.80;99.90
12853;DHT22;6495;51.808;7.478;2022-11-20T16:14:24;3.80;99.90
12853;DHT22;6495;51.808;7.478;2022-11-20T16:17:29;3.80;99.90
12853;DHT22;6495;51.808;7.478;2022-11-20T16:20:29;3.80;99.90
12853;DHT22;6495;51.808;7.478;2022-11-20T16:23:17;3.80;99.90
12853;DHT22;6495;51.808;7.478;2022-11-20T16:26:09;3.80;99.90
12853;DHT22;6495;51.808;7.478;2022-11-20T16:28:58;3.80;99.90
12853;DHT22;6495;51.808;7.478;2022-11-20T16:31:46;3.80;99.90
12853;DHT22;6495;51.808;7.478;2022-11-20T16:34:32;3.80;99.90
12853;DHT22;6495;51.808;7.478;2022-11-20T16:37:19;3.80;99.90
12853;DHT22;6495;51.808;7.478;2022-11-20T16:40:08;3.80;99.90
12853;DHT22;6495;51.808;7.478;2022-11-20T16:42:57;3.80;99.90
12853;DHT22;6495;51.808;7.478;2022-11-20T16:45:44;3.70;99.90
12853;DHT22;6495;51.808;7.478;2022-11-20T16:48:31;3.70;99.90
12853;DHT22;6495;51.808;7.478;2022-11-20T16:51:18;3.70;99.90
12853;DHT22;6495;51.808;7.478;2022-11-20T16:54:06;3.70;99.90
12853;DHT22;6495;51.808;7.478;2022-11-20T16:56:56;3.70;99.90
12853;DHT22;6495;51.808;7.478;2022-11-20T16:59:43;3.70;99.90
12853;DHT22;6495;51.808;7.478;2022-11-20T17:02:30;3.70;99.90
12853;DHT22;6495;51.808;7.478;2022-11-20T17:05:16;3.70;99.90
12853;DHT22;6495;51.808;7.478;2022-11-20T17:08:05;3.70;99.90
12853;DHT22;6495;51.808;7.478;2022-11-20T17:10:52;3.60;99.90
12853;DHT22;6495;51.808;7.478;2022-11-20T17:13:41;3.60;99.90
12853;DHT22;6495;51.808;7.478;2022-11-20T17:16:29;3.60;99.90
12853;DHT22;6495;51.808;7.478;2022-11-20T17:19:16;3.60;99.90
12853;DHT22;6495;51.808;7.478;2022-11-20T17:22:03;3.60;99.90
12853;DHT22;6495;51.808;7.478;2022-11-20T17:24:50;3.60;99.90
12853;DHT22;6495;51.808;7.478;2022-11-20T17:27:37;3.60;99.90
12853;DHT22;6495;51.808;7.478;2022-11-20T17:30:25;3.60;99.90
12853;DHT22;6495;51.808;7.478;2022-11-20T17:33:12;3.60;99.90
12853;DHT22;6495;51.808;7.478;2022-11-20T17:35:59;3.60;99.90
12853;DHT22;6495;51.808;7.478;2022-11-20T17:38:46;3.60;99.90
12853;DHT22;6495;51.808;7.478;2022-11-20T17:41:33;3.60;99.90
12853;DHT22;6495;51.808;7.478;2022-11-20T17:44:20;3.60;99.90
12853;DHT22;6495;51.808;7.478;2022-11-20T17:47:09;3.60;99.90
12853;DHT22;6495;51.808;7.478;2022-11-20T17:49:56;3.60;99.90
12853;DHT22;6495;51.808;7.478;2022-11-20T17:52:43;3.60;99.90
12853;DHT22;6495;51.808;7.478;2022-11-20T17:55:30;3.60;99.90
12853;DHT22;6495;51.808;7.478;2022-11-20T17:58:40;3.60;99.90
12853;DHT22;6495;51.808;7.478;2022-11-20T18:01:26;3.60;99.90
12853;DHT22;6495;51.808;7.478;2022-11-20T18:04:14;3.60;99.90
12853;DHT22;6495;51.808;7.478;2022-11-20T18:07:01;3.60;99.90
12853;DHT22;6495;51.808;7.478;2022-11-20T18:09:49;3.60;99.90
12853;DHT22;6495;51.808;7.478;2022-11-20T18:12:36;3.60;99.90
12853;DHT22;6495;51.808;7.478;2022-11-20T18:15:23;3.60;99.90
12853;DHT22;6495;51.808;7.478;2022-11-20T18:18:10;3.60;99.90
12853;DHT22;6495;51.808;7.478;2022-11-20T18:20:58;3.60;99.90
12853;DHT22;6495;51.808;7.478;2022-11-20T18:23:45;3.60;99.90
12853;DHT22;6495;51.808;7.478;2022-11-20T18:26:32;3.60;99.90
12853;DHT22;6495;51.808;7.478;2022-11-20T18:29:25;3.60;99.90
12853;DHT22;6495;51.808;7.478;2022-11-20T18:32:12;3.60;99.90
12853;DHT22;6495;51.808;7.478;2022-11-20T18:34:59;3.60;99.90